createdAt,value
2018-08-18T00:02:26.934Z,18.10
2018-08-18T00:05:01.884Z,18.10
2018-08-18T00:07:37.126Z,18.10
2018-08-18T00:10:13.986Z,18.20
2018-08-18T00:12:49.078Z,18.20
2018-08-18T00:15:24.484Z,18.10
2018-08-18T00:17:59.249Z,18.10
2018-08-18T00:20:34.606Z,18.10
2018-08-18T00:23:10.507Z,18.10
2018-08-18T00:25:45.669Z,18.10
2018-08-18T00:28:25.187Z,18.20
2018-08-18T00:31:00.319Z,18.20
2018-08-18T00:33:35.485Z,18.10
2018-08-18T00:36:10.433Z,18.10
2018-08-18T00:38:45.334Z,18.00
2018-08-18T00:41:20.241Z,18.00
2018-08-18T00:43:55.945Z,18.00
2018-08-18T00:46:32.003Z,18.00
2018-08-18T00:49:07.651Z,18.00
2018-08-18T00:51:42.789Z,18.00
2018-08-18T00:54:17.418Z,18.00
2018-08-18T00:56:52.330Z,17.90
2018-08-18T00:59:40.098Z,18.00
2018-08-18T01:02:14.926Z,18.00
2018-08-18T01:04:56.949Z,17.80
2018-08-18T01:07:32.767Z,17.70
2018-08-18T01:10:08.470Z,17.80
2018-08-18T01:12:43.302Z,17.80
2018-08-18T01:15:24.613Z,17.80
2018-08-18T01:17:59.657Z,17.80
2018-08-18T01:20:35.029Z,17.90
2018-08-18T01:23:09.986Z,17.90
2018-08-18T01:25:44.930Z,17.80
2018-08-18T01:28:20.653Z,17.90
2018-08-18T01:31:07.086Z,17.90
2018-08-18T01:33:42.072Z,17.90
2018-08-18T01:36:16.815Z,17.80
2018-08-18T01:38:51.677Z,17.90
2018-08-18T01:41:26.474Z,17.90
2018-08-18T01:44:32.517Z,17.80
2018-08-18T01:47:09.683Z,17.80
2018-08-18T01:49:44.929Z,17.80
2018-08-18T01:52:26.249Z,17.80
2018-08-18T01:55:01.034Z,17.80
2018-08-18T01:57:35.930Z,17.90
2018-08-18T02:00:23.865Z,17.80
2018-08-18T02:02:58.659Z,17.80
2018-08-18T02:05:33.449Z,17.70
2018-08-18T02:08:08.601Z,17.70
2018-08-18T02:10:43.868Z,17.70
2018-08-18T02:13:18.763Z,17.60
2018-08-18T02:15:53.938Z,17.70
2018-08-18T02:18:28.590Z,17.70
2018-08-18T02:21:03.311Z,17.60
2018-08-18T02:23:38.258Z,17.70
2018-08-18T02:26:13.625Z,17.70
2018-08-18T02:28:48.522Z,17.70
2018-08-18T02:31:23.233Z,17.70
2018-08-18T02:33:58.055Z,17.70
2018-08-18T02:36:32.779Z,17.70
2018-08-18T02:39:07.893Z,17.70
2018-08-18T02:41:54.301Z,17.70
2018-08-18T02:44:29.221Z,17.70
2018-08-18T02:47:03.971Z,17.70
2018-08-18T02:49:44.830Z,17.70
2018-08-18T02:52:28.318Z,17.70
2018-08-18T02:55:04.549Z,17.70
2018-08-18T02:57:43.661Z,17.70
2018-08-18T03:00:24.145Z,17.70
2018-08-18T03:02:59.125Z,17.70
2018-08-18T03:05:33.856Z,17.70
2018-08-18T03:08:08.833Z,17.70
2018-08-18T03:10:43.622Z,17.70
2018-08-18T03:13:18.685Z,17.70
2018-08-18T03:15:53.538Z,17.70
2018-08-18T03:18:51.393Z,17.60
2018-08-18T03:21:31.625Z,17.60
2018-08-18T03:24:16.138Z,17.60
2018-08-18T03:26:54.458Z,17.60
2018-08-18T03:29:30.310Z,17.60
2018-08-18T03:32:05.857Z,17.60
2018-08-18T03:34:40.717Z,17.60
2018-08-18T03:37:26.833Z,17.60
2018-08-18T03:40:01.576Z,17.60
2018-08-18T03:42:40.706Z,17.50
2018-08-18T03:45:15.459Z,17.60
2018-08-18T03:47:50.510Z,17.60
2018-08-18T03:50:30.099Z,17.60
2018-08-18T03:53:04.754Z,17.60
2018-08-18T03:55:40.317Z,17.50
2018-08-18T03:58:15.489Z,17.50
2018-08-18T04:00:50.762Z,17.60
2018-08-18T04:03:25.453Z,17.60
2018-08-18T04:06:00.127Z,17.60
2018-08-18T04:08:35.133Z,17.60
2018-08-18T04:11:10.121Z,17.60
2018-08-18T04:13:44.944Z,17.60
2018-08-18T04:16:19.822Z,17.60
2018-08-18T04:18:59.783Z,17.60
2018-08-18T04:21:34.957Z,17.50
2018-08-18T04:24:10.382Z,17.50
2018-08-18T04:26:47.786Z,17.60
2018-08-18T04:29:22.553Z,17.60
2018-08-18T04:31:59.401Z,17.60
2018-08-18T04:34:34.969Z,17.60
2018-08-18T04:37:09.713Z,17.60
2018-08-18T04:39:44.539Z,17.60
2018-08-18T04:42:19.389Z,17.60
2018-08-18T04:44:54.673Z,17.60
2018-08-18T04:47:30.880Z,17.60
2018-08-18T04:50:05.654Z,17.60
2018-08-18T04:52:41.241Z,17.50
2018-08-18T04:55:16.451Z,17.50
2018-08-18T04:57:51.713Z,17.50
2018-08-18T05:00:27.864Z,17.50
2018-08-18T05:03:03.209Z,17.60
2018-08-18T05:05:38.011Z,17.60
2018-08-18T05:08:12.812Z,17.50
2018-08-18T05:10:47.630Z,17.50
2018-08-18T05:13:22.754Z,17.50
2018-08-18T05:15:57.725Z,17.50
2018-08-18T05:18:32.673Z,17.50
2018-08-18T05:21:07.357Z,17.50
2018-08-18T05:23:42.400Z,17.50
2018-08-18T05:26:17.297Z,17.50
2018-08-18T05:28:51.946Z,17.50
2018-08-18T05:31:26.730Z,17.60
2018-08-18T05:34:02.010Z,17.50
2018-08-18T05:36:36.808Z,17.50
2018-08-18T05:39:12.195Z,17.50
2018-08-18T05:41:46.809Z,17.50
2018-08-18T05:44:21.934Z,17.40
2018-08-18T05:46:56.788Z,17.40
2018-08-18T05:49:31.577Z,17.40
2018-08-18T05:52:06.857Z,17.50
2018-08-18T05:54:42.513Z,17.50
2018-08-18T05:57:17.869Z,17.50
2018-08-18T05:59:53.381Z,17.50
2018-08-18T06:02:28.548Z,17.50
2018-08-18T06:05:03.897Z,17.60
2018-08-18T06:07:39.010Z,17.60
2018-08-18T06:10:14.121Z,17.70
2018-08-18T06:12:49.174Z,17.80
2018-08-18T06:15:24.322Z,17.90
2018-08-18T06:17:59.267Z,17.90
2018-08-18T06:20:34.187Z,18.00
2018-08-18T06:23:08.822Z,18.00
2018-08-18T06:25:43.752Z,18.00
2018-08-18T06:28:18.789Z,18.10
2018-08-18T06:30:53.708Z,18.20
2018-08-18T06:33:28.741Z,18.20
2018-08-18T06:36:04.081Z,18.20
2018-08-18T06:38:39.728Z,18.40
2018-08-18T06:41:14.475Z,18.50
2018-08-18T06:43:49.661Z,18.60
2018-08-18T06:46:25.157Z,18.60
2018-08-18T06:49:00.614Z,18.60
2018-08-18T06:51:36.133Z,18.60
2018-08-18T06:54:11.009Z,18.80
2018-08-18T06:56:46.267Z,18.80
2018-08-18T06:59:21.674Z,18.80
2018-08-18T07:01:57.089Z,18.80
2018-08-18T07:04:32.493Z,18.90
2018-08-18T07:07:08.229Z,18.90
2018-08-18T07:09:42.982Z,19.00
2018-08-18T07:12:18.389Z,18.90
2018-08-18T07:15:02.764Z,18.90
2018-08-18T07:17:38.673Z,18.90
2018-08-18T07:20:14.481Z,18.90
2018-08-18T07:22:49.568Z,18.80
2018-08-18T07:25:24.770Z,19.00
2018-08-18T07:28:05.477Z,19.10
2018-08-18T07:30:40.837Z,19.10
2018-08-18T07:33:16.564Z,19.20
2018-08-18T07:35:52.622Z,19.40
2018-08-18T07:38:27.957Z,19.50
2018-08-18T07:41:03.641Z,19.60
2018-08-18T07:43:39.187Z,19.60
2018-08-18T07:46:14.399Z,19.60
2018-08-18T07:48:50.274Z,19.60
2018-08-18T07:51:33.415Z,19.60
2018-08-18T07:54:08.772Z,19.70
2018-08-18T07:56:44.146Z,19.70
2018-08-18T07:59:19.437Z,19.70
2018-08-18T08:01:55.015Z,19.80
2018-08-18T08:04:30.493Z,19.70
2018-08-18T08:07:05.969Z,19.60
2018-08-18T08:12:42.415Z,19.80
2018-08-18T08:15:18.614Z,19.80
2018-08-18T08:17:53.939Z,19.80
2018-08-18T08:20:29.862Z,19.90
2018-08-18T08:23:05.771Z,19.90
2018-08-18T08:25:41.286Z,20.00
2018-08-18T08:28:16.994Z,19.80
2018-08-18T08:30:52.487Z,19.80
2018-08-18T08:33:37.126Z,19.70
2018-08-18T08:36:15.197Z,19.80
2018-08-18T08:38:57.804Z,19.90
2018-08-18T08:41:33.707Z,20.10
2018-08-18T08:44:09.166Z,20.20
2018-08-18T08:46:57.184Z,20.30
2018-08-18T08:49:32.610Z,20.40
2018-08-18T08:52:08.448Z,20.60
2018-08-18T08:54:44.457Z,20.80
2018-08-18T08:57:19.778Z,21.10
2018-08-18T08:59:55.246Z,21.20
2018-08-18T09:02:30.638Z,21.30
2018-08-18T09:05:07.365Z,21.30
2018-08-18T09:07:42.885Z,21.20
2018-08-18T09:10:19.062Z,21.50
2018-08-18T09:12:54.429Z,21.90
2018-08-18T09:15:29.950Z,22.00
2018-08-18T09:18:05.892Z,22.50
2018-08-18T09:20:46.211Z,22.60
2018-08-18T09:23:21.893Z,22.30
2018-08-18T09:25:57.741Z,22.40
2018-08-18T09:28:33.398Z,22.00
2018-08-18T09:31:08.756Z,22.00
2018-08-18T09:33:44.005Z,22.20
2018-08-18T09:36:20.016Z,22.30
2018-08-18T09:38:55.323Z,22.30
2018-08-18T09:41:31.157Z,22.20
2018-08-18T09:44:06.616Z,21.80
2018-08-18T09:46:42.485Z,22.00
2018-08-18T09:49:18.317Z,22.20
2018-08-18T09:51:53.740Z,22.00
2018-08-18T09:54:29.702Z,22.00
2018-08-18T09:57:05.469Z,22.20
2018-08-18T09:59:41.493Z,22.90
2018-08-18T10:02:16.768Z,23.20
2018-08-18T10:04:52.649Z,24.20
2018-08-18T10:07:28.060Z,25.50
2018-08-18T10:10:03.757Z,25.60
2018-08-18T10:12:39.017Z,26.20
2018-08-18T10:15:14.620Z,26.90
2018-08-18T10:17:50.766Z,27.10
2018-08-18T10:20:26.586Z,25.90
2018-08-18T10:23:02.121Z,26.00
2018-08-18T10:25:37.584Z,25.00
2018-08-18T10:28:12.884Z,25.80
2018-08-18T10:30:51.242Z,26.60
2018-08-18T10:33:27.307Z,26.90
2018-08-18T10:36:03.861Z,27.40
2018-08-18T10:38:39.448Z,27.20
2018-08-18T10:41:15.037Z,27.20
2018-08-18T10:43:50.476Z,27.50
2018-08-18T10:46:25.889Z,27.70
2018-08-18T10:49:01.261Z,29.00
2018-08-18T10:51:47.589Z,29.60
2018-08-18T10:54:23.057Z,30.40
2018-08-18T10:56:58.432Z,30.00
2018-08-18T10:59:44.806Z,31.00
2018-08-18T11:02:32.058Z,30.40
2018-08-18T11:05:07.965Z,30.20
2018-08-18T11:07:44.262Z,30.30
2018-08-18T11:10:19.314Z,30.80
2018-08-18T11:12:54.954Z,30.40
2018-08-18T11:15:30.271Z,29.90
2018-08-18T11:18:05.987Z,31.00
2018-08-18T11:20:41.406Z,31.50
2018-08-18T11:23:16.526Z,31.60
2018-08-18T11:25:52.939Z,31.30
2018-08-18T11:28:28.014Z,31.60
2018-08-18T11:31:03.335Z,30.60
2018-08-18T11:33:40.949Z,30.60
2018-08-18T11:36:16.018Z,31.00
2018-08-18T11:38:51.306Z,31.70
2018-08-18T11:41:27.213Z,32.70
2018-08-18T11:44:02.998Z,31.90
2018-08-18T11:46:41.282Z,31.40
2018-08-18T11:49:16.742Z,31.60
2018-08-18T11:51:52.216Z,31.90
2018-08-18T11:54:27.212Z,31.70
2018-08-18T11:57:03.269Z,32.80
2018-08-18T11:59:38.225Z,33.70
2018-08-18T12:02:13.382Z,32.00
2018-08-18T12:04:49.392Z,32.30
2018-08-18T12:07:24.426Z,32.90
2018-08-18T12:09:59.545Z,33.60
2018-08-18T12:12:35.143Z,32.80
2018-08-18T12:15:10.384Z,32.20
2018-08-18T12:17:55.508Z,32.80
2018-08-18T12:20:31.280Z,33.00
2018-08-18T12:23:07.274Z,33.40
2018-08-18T12:25:42.566Z,32.90
2018-08-18T12:28:17.784Z,32.70
2018-08-18T12:30:53.469Z,33.90
2018-08-18T12:33:30.566Z,34.30
2018-08-18T12:36:05.922Z,32.20
2018-08-18T12:38:42.591Z,32.00
2018-08-18T12:41:17.988Z,32.20
2018-08-18T12:43:55.373Z,33.20
2018-08-18T12:46:37.137Z,34.00
2018-08-18T12:49:12.390Z,34.10
2018-08-18T12:51:48.008Z,34.00
2018-08-18T12:54:23.280Z,34.10
2018-08-18T12:56:58.271Z,34.90
2018-08-18T12:59:34.400Z,35.10
2018-08-18T13:02:09.471Z,34.60
2018-08-18T13:04:44.722Z,34.50
2018-08-18T13:07:20.576Z,34.60
2018-08-18T13:10:07.477Z,35.40
2018-08-18T13:12:42.422Z,35.10
2018-08-18T13:15:18.212Z,34.90
2018-08-18T13:17:54.522Z,35.60
2018-08-18T13:20:29.552Z,35.60
2018-08-18T13:23:04.759Z,36.10
2018-08-18T13:25:41.263Z,36.00
2018-08-18T13:28:17.050Z,35.80
2018-08-18T13:30:52.365Z,35.50
2018-08-18T13:33:30.003Z,35.40
2018-08-18T13:36:05.179Z,36.50
2018-08-18T13:38:40.450Z,36.20
2018-08-18T13:41:15.665Z,36.90
2018-08-18T13:43:50.651Z,36.60
2018-08-18T13:46:36.894Z,36.60
2018-08-18T13:49:12.474Z,36.70
2018-08-18T13:51:47.916Z,35.70
2018-08-18T13:54:23.080Z,35.20
2018-08-18T13:56:58.206Z,35.00
2018-08-18T13:59:41.269Z,35.40
2018-08-18T14:02:16.393Z,35.30
2018-08-18T14:04:51.722Z,34.30
2018-08-18T14:07:26.802Z,35.20
2018-08-18T14:10:02.117Z,34.30
2018-08-18T14:12:37.216Z,35.40
2018-08-18T14:15:13.189Z,35.60
2018-08-18T14:17:51.986Z,35.10
2018-08-18T14:20:27.162Z,35.30
2018-08-18T14:23:08.316Z,35.20
2018-08-18T14:25:43.677Z,34.80
2018-08-18T14:28:18.636Z,34.00
2018-08-18T14:30:53.825Z,34.30
2018-08-18T14:33:29.293Z,34.50
2018-08-18T14:36:10.707Z,35.30
2018-08-18T14:38:47.369Z,34.40
2018-08-18T14:41:37.112Z,34.20
2018-08-18T14:44:12.329Z,34.20
2018-08-18T14:46:47.584Z,34.60
2018-08-18T14:49:23.060Z,34.30
2018-08-18T14:51:58.128Z,34.60
2018-08-18T14:54:33.544Z,33.90
2018-08-18T14:57:09.453Z,34.90
2018-08-18T14:59:44.993Z,34.60
2018-08-18T15:02:20.172Z,34.90
2018-08-18T15:04:55.087Z,35.30
2018-08-18T15:07:31.093Z,35.60
2018-08-18T15:10:06.098Z,35.20
2018-08-18T15:12:41.330Z,34.50
2018-08-18T15:15:16.429Z,35.00
2018-08-18T15:17:52.733Z,33.80
2018-08-18T15:20:29.477Z,33.80
2018-08-18T15:23:06.329Z,33.60
2018-08-18T15:25:42.305Z,34.40
2018-08-18T15:28:19.159Z,33.50
2018-08-18T15:30:55.245Z,33.10
2018-08-18T15:33:30.617Z,33.70
2018-08-18T15:36:16.425Z,33.60
2018-08-18T15:38:52.573Z,33.90
2018-08-18T15:41:28.333Z,33.60
2018-08-18T15:44:09.260Z,33.80
2018-08-18T15:46:44.398Z,34.00
2018-08-18T15:49:20.078Z,33.50
2018-08-18T15:51:56.514Z,33.80
2018-08-18T15:54:31.677Z,33.70
2018-08-18T15:57:07.216Z,33.50
2018-08-18T15:59:49.656Z,33.20
2018-08-18T16:02:24.945Z,33.10
2018-08-18T16:05:00.573Z,32.70
2018-08-18T16:07:35.678Z,33.10
2018-08-18T16:10:10.730Z,32.60
2018-08-18T16:12:47.029Z,32.20
2018-08-18T16:15:23.612Z,32.50
2018-08-18T16:17:58.768Z,32.50
2018-08-18T16:20:33.853Z,31.80
2018-08-18T16:23:13.089Z,32.10
2018-08-18T16:25:48.240Z,31.50
2018-08-18T16:28:40.533Z,31.20
2018-08-18T16:31:15.668Z,31.40
2018-08-18T16:33:52.034Z,31.60
2018-08-18T16:36:30.880Z,31.40
2018-08-18T16:39:06.731Z,31.50
2018-08-18T16:41:41.897Z,31.10
2018-08-18T16:44:17.524Z,31.10
2018-08-18T16:46:52.654Z,31.00
2018-08-18T16:49:27.943Z,30.40
2018-08-18T16:52:03.000Z,30.00
2018-08-18T16:54:38.153Z,30.00
2018-08-18T16:57:13.369Z,29.80
2018-08-18T16:59:48.852Z,29.50
2018-08-18T17:02:34.018Z,29.30
2018-08-18T17:05:10.183Z,29.10
2018-08-18T17:07:45.861Z,28.60
2018-08-18T17:10:21.609Z,28.30
2018-08-18T17:12:59.417Z,28.20
2018-08-18T17:15:34.945Z,28.00
2018-08-18T17:18:10.082Z,28.10
2018-08-18T17:20:55.391Z,28.30
2018-08-18T17:23:32.427Z,28.50
2018-08-18T17:26:08.197Z,28.20
2018-08-18T17:28:43.563Z,28.10
2018-08-18T17:31:18.969Z,27.60
2018-08-18T17:33:54.430Z,27.40
2018-08-18T17:36:29.806Z,27.40
2018-08-18T17:39:06.665Z,27.30
2018-08-18T17:41:42.205Z,27.20
2018-08-18T17:44:17.654Z,27.10
2018-08-18T17:46:54.996Z,26.90
2018-08-18T17:49:30.625Z,26.80
2018-08-18T17:52:08.470Z,26.70
2018-08-18T17:54:53.359Z,26.60
2018-08-18T17:57:28.690Z,26.60
2018-08-18T18:00:10.565Z,26.50
2018-08-18T18:02:52.610Z,26.40
2018-08-18T18:05:29.955Z,26.20
2018-08-18T18:08:06.910Z,26.10
2018-08-18T18:10:42.638Z,25.90
2018-08-18T18:13:24.414Z,25.90
2018-08-18T18:16:00.339Z,25.70
2018-08-18T18:18:41.107Z,25.50
2018-08-18T18:21:16.611Z,25.30
2018-08-18T18:23:53.301Z,25.20
2018-08-18T18:26:29.731Z,25.10
2018-08-18T18:29:05.317Z,25.10
2018-08-18T18:31:41.320Z,25.00
2018-08-18T18:34:16.726Z,24.90
2018-08-18T18:36:52.418Z,24.80
2018-08-18T18:39:27.806Z,24.80
2018-08-18T18:42:03.340Z,24.60
2018-08-18T18:44:39.049Z,24.50
2018-08-18T18:47:14.534Z,24.40
2018-08-18T18:49:50.262Z,24.40
2018-08-18T18:52:26.451Z,24.20
2018-08-18T18:55:01.883Z,24.20
2018-08-18T18:57:37.165Z,23.80
2018-08-18T19:00:12.801Z,23.90
2018-08-18T19:02:48.418Z,23.80
2018-08-18T19:05:26.392Z,23.70
2018-08-18T19:08:07.047Z,23.50
2018-08-18T19:10:42.813Z,23.20
2018-08-18T19:13:18.058Z,23.10
2018-08-18T19:15:53.661Z,23.00
2018-08-18T19:18:29.339Z,22.90
2018-08-18T19:21:04.745Z,22.80
2018-08-18T19:23:40.241Z,22.70
2018-08-18T19:26:15.911Z,22.60
2018-08-18T19:28:51.519Z,22.50
2018-08-18T19:31:35.639Z,22.40
2018-08-18T19:34:13.823Z,22.30
2018-08-18T19:37:08.897Z,22.30
2018-08-18T19:39:44.188Z,22.20
2018-08-18T19:42:20.215Z,21.90
2018-08-18T19:44:55.717Z,22.00
2018-08-18T19:47:36.521Z,21.70
2018-08-18T19:50:12.081Z,21.70
2018-08-18T19:52:47.597Z,21.80
2018-08-18T19:55:23.182Z,21.80
2018-08-18T19:57:58.662Z,21.60
2018-08-18T20:00:34.786Z,21.70
2018-08-18T20:03:11.743Z,21.60
2018-08-18T20:05:47.430Z,21.60
2018-08-18T20:08:25.519Z,21.60
2018-08-18T20:11:01.811Z,21.30
2018-08-18T20:13:37.317Z,21.50
2018-08-18T20:16:13.005Z,21.50
2018-08-18T20:18:49.308Z,21.60
2018-08-18T20:21:25.002Z,21.20
2018-08-18T20:24:00.581Z,21.30
2018-08-18T20:26:36.191Z,21.20
2018-08-18T20:29:11.570Z,21.20
2018-08-18T20:31:58.391Z,21.20
2018-08-18T20:34:33.984Z,21.20
2018-08-18T20:37:09.619Z,21.30
2018-08-18T20:39:45.217Z,21.20
2018-08-18T20:42:27.109Z,21.10
2018-08-18T20:45:02.806Z,20.90
2018-08-18T20:47:39.374Z,21.00
2018-08-18T20:50:15.578Z,21.10
2018-08-18T20:52:52.878Z,21.10
2018-08-18T20:55:28.896Z,20.90
2018-08-18T20:58:04.131Z,21.00
2018-08-18T21:00:39.539Z,20.90
2018-08-18T21:03:15.046Z,20.90
2018-08-18T21:05:50.485Z,20.80
2018-08-18T21:08:25.887Z,20.90
2018-08-18T21:11:01.296Z,21.00
2018-08-18T21:13:37.739Z,21.00
2018-08-18T21:16:13.770Z,21.00
2018-08-18T21:18:49.478Z,20.90
2018-08-18T21:21:35.629Z,20.80
2018-08-18T21:24:11.187Z,20.70
2018-08-18T21:26:47.617Z,20.70
2018-08-18T21:29:26.276Z,20.80
2018-08-18T21:32:01.467Z,20.80
2018-08-18T21:34:43.993Z,20.80
2018-08-18T21:37:19.930Z,20.80
2018-08-18T21:39:55.162Z,20.70
2018-08-18T21:42:30.833Z,20.50
2018-08-18T21:45:09.686Z,20.40
2018-08-18T21:47:45.831Z,20.40
2018-08-18T21:50:21.310Z,20.30
2018-08-18T21:53:03.167Z,20.30
2018-08-18T21:55:38.878Z,20.30
2018-08-18T21:58:14.251Z,20.30
2018-08-18T22:00:49.918Z,20.30
2018-08-18T22:03:25.404Z,20.30
2018-08-18T22:06:00.971Z,20.30
2018-08-18T22:08:36.350Z,20.30
2018-08-18T22:11:16.353Z,20.20
2018-08-18T22:13:52.635Z,20.20
2018-08-18T22:16:28.574Z,20.20
2018-08-18T22:19:04.654Z,20.00
2018-08-18T22:21:40.545Z,19.90
2018-08-18T22:24:16.053Z,19.90
2018-08-18T22:26:51.494Z,20.00
2018-08-18T22:29:27.549Z,19.90
2018-08-18T22:32:08.837Z,19.80
2018-08-18T22:34:44.139Z,19.90
2018-08-18T22:37:19.576Z,19.90
2018-08-18T22:39:55.143Z,19.80
2018-08-18T22:42:30.898Z,19.80
2018-08-18T22:45:17.566Z,19.60
2018-08-18T22:47:53.036Z,19.60
2018-08-18T22:50:28.901Z,19.60
2018-08-18T22:53:04.708Z,19.50
2018-08-18T22:55:40.010Z,19.50
2018-08-18T22:58:15.335Z,19.50
2018-08-18T23:00:56.174Z,19.50
2018-08-18T23:03:32.030Z,19.60
2018-08-18T23:06:07.339Z,19.60
2018-08-18T23:08:43.055Z,19.40
2018-08-18T23:11:19.210Z,19.30
2018-08-18T23:13:54.802Z,19.30
2018-08-18T23:16:30.483Z,19.30
2018-08-18T23:19:05.795Z,19.30
2018-08-18T23:21:41.143Z,19.20
2018-08-18T23:24:40.435Z,19.30
2018-08-18T23:27:15.873Z,19.20
2018-08-18T23:29:51.482Z,19.20
2018-08-18T23:32:26.926Z,19.20
2018-08-18T23:35:02.911Z,19.30
2018-08-18T23:37:37.889Z,19.20
2018-08-18T23:40:12.887Z,19.10
2018-08-18T23:42:48.399Z,19.20
2018-08-18T23:45:24.866Z,19.20
2018-08-18T23:48:05.352Z,19.00
2018-08-18T23:50:41.552Z,18.80
2018-08-18T23:53:18.315Z,18.60
2018-08-18T23:55:58.425Z,18.70
2018-08-18T23:58:33.878Z,18.80
